Time;durP1;ratioP1;P1;durP2;ratioP2;P2;SDS_P1;SDS_P2;PMS_P1;PMS_P2;Temp;Humidity;BMP_temperature;BMP_pressure;BME280_temperature;BME280_humidity;BME280_pressure;Samples;Min_cycle;Max_cycle;Signal;HPM_P1;HPM_P2
2021/05/05 00:00:30;;;;;;;7.18;2.42;;;7.60;74.50;;;;;;5094345;28;20495;-38
2021/05/05 00:02:57;;;;;;;5.68;2.78;;;7.70;74.20;;;;;;5093308;28;20021;-37
2021/05/05 00:05:22;;;;;;;8.30;3.15;;;7.70;74.40;;;;;;5092589;28;20051;-37
2021/05/05 00:07:48;;;;;;;5.22;2.85;;;7.60;74.50;;;;;;5094012;28;20024;-35
2021/05/05 00:10:16;;;;;;;4.63;2.70;;;7.60;74.20;;;;;;5094233;28;20013;-37
2021/05/05 00:12:42;;;;;;;8.43;3.10;;;7.60;74.10;;;;;;5093928;28;20103;-36
2021/05/05 00:15:15;;;;;;;5.93;2.33;;;7.60;74.30;;;;;;5094293;28;20031;-36
2021/05/05 00:17:41;;;;;;;6.35;2.97;;;7.60;74.40;;;;;;5093990;28;20078;-38
2021/05/05 00:20:08;;;;;;;10.70;3.85;;;7.70;74.30;;;;;;5093719;28;20467;-37
2021/05/05 00:22:34;;;;;;;5.88;2.90;;;7.60;74.40;;;;;;5093576;28;20466;-37
2021/05/05 00:25:00;;;;;;;10.73;2.60;;;7.60;74.10;;;;;;5093925;28;20024;-37
2021/05/05 00:27:26;;;;;;;6.05;2.78;;;7.70;74.10;;;;;;5093473;28;20024;-37
2021/05/05 00:29:52;;;;;;;7.18;2.28;;;7.70;74.20;;;;;;5093601;28;20020;-36
2021/05/05 00:32:17;;;;;;;6.60;3.25;;;7.60;74.10;;;;;;5093588;28;20020;-37
2021/05/05 00:34:43;;;;;;;8.07;2.85;;;7.60;74.10;;;;;;5093644;28;20095;-36
2021/05/05 00:37:09;;;;;;;5.43;2.63;;;7.70;74.00;;;;;;5092263;28;20032;-36
2021/05/05 00:39:34;;;;;;;7.13;2.65;;;7.70;73.90;;;;;;5093495;28;20016;-37
2021/05/05 00:42:00;;;;;;;6.53;2.67;;;7.70;74.10;;;;;;5093410;28;20031;-38
2021/05/05 00:44:26;;;;;;;5.35;2.42;;;7.70;74.00;;;;;;5093855;28;20490;-37
2021/05/05 00:46:51;;;;;;;7.97;2.70;;;7.60;73.60;;;;;;5092013;28;20024;-37
2021/05/05 00:49:17;;;;;;;7.72;2.83;;;7.60;74.00;;;;;;5091906;28;20031;-36
2021/05/05 00:51:43;;;;;;;7.43;3.75;;;7.70;73.60;;;;;;5093095;28;20040;-37
2021/05/05 00:54:09;;;;;;;2.85;2.25;;;7.60;73.80;;;;;;5093206;28;20485;-37
2021/05/05 00:56:35;;;;;;;3.42;2.33;;;7.60;73.90;;;;;;5093629;28;20052;-37
2021/05/05 00:59:01;;;;;;;7.57;2.80;;;7.60;73.90;;;;;;5093150;28;20099;-35
2021/05/05 01:01:26;;;;;;;3.47;2.47;;;7.60;73.80;;;;;;5091713;28;20032;-38
2021/05/05 01:03:52;;;;;;;7.07;3.08;;;7.60;73.80;;;;;;5092938;28;20499;-37
2021/05/05 01:06:17;;;;;;;8.13;2.95;;;7.60;73.90;;;;;;5092833;28;20032;-36
2021/05/05 01:08:46;;;;;;;3.78;2.75;;;7.50;73.50;;;;;;5093152;28;20379;-35
2021/05/05 01:11:13;;;;;;;7.80;3.90;;;7.50;73.60;;;;;;5093277;28;20050;-36
2021/05/05 01:13:39;;;;;;;5.25;3.67;;;7.40;74.10;;;;;;5092946;28;20460;-36
2021/05/05 01:16:05;;;;;;;7.22;3.40;;;7.40;74.20;;;;;;5096756;28;20047;-36
2021/05/05 01:18:30;;;;;;;5.45;3.13;;;7.30;74.50;;;;;;5097381;28;20471;-36
2021/05/05 01:20:58;;;;;;;5.05;2.13;;;7.30;74.80;;;;;;5097217;28;20103;-36
2021/05/05 01:23:25;;;;;;;3.40;1.80;;;7.30;73.80;;;;;;5096804;28;20095;-36
2021/05/05 01:25:51;;;;;;;1.50;1.27;;;7.20;72.50;;;;;;5096929;28;20047;-36
2021/05/05 01:28:16;;;;;;;1.40;1.25;;;7.20;72.40;;;;;;5097132;28;20495;-36
2021/05/05 01:30:42;;;;;;;5.82;1.70;;;7.20;73.20;;;;;;5096913;28;20590;-35
2021/05/05 01:33:09;;;;;;;6.10;1.00;;;7.10;72.80;;;;;;5096700;28;20095;-37
2021/05/05 01:35:34;;;;;;;3.00;1.27;;;7.10;73.30;;;;;;5096679;28;20019;-37
2021/05/05 01:38:00;;;;;;;1.67;1.20;;;7.10;72.70;;;;;;5097036;28;20089;-36
2021/05/05 01:40:29;;;;;;;1.70;1.10;;;7.10;72.70;;;;;;5097221;28;20032;-36
2021/05/05 01:42:56;;;;;;;1.92;0.90;;;7.00;72.50;;;;;;5096888;28;20097;-36
2021/05/05 01:45:22;;;;;;;0.63;0.60;;;7.00;72.40;;;;;;5096912;28;20032;-37
2021/05/05 01:47:52;;;;;;;1.98;1.02;;;7.00;72.60;;;;;;5096999;28;20101;-37
2021/05/05 01:50:18;;;;;;;1.75;0.98;;;7.00;72.70;;;;;;5096927;28;20091;-36
2021/05/05 01:52:47;;;;;;;1.00;0.90;;;7.00;72.60;;;;;;5095180;28;20036;-36
2021/05/05 01:55:12;;;;;;;1.35;0.90;;;7.00;72.40;;;;;;5096437;28;20494;-36
2021/05/05 01:57:46;;;;;;;2.45;1.20;;;7.00;72.60;;;;;;5096389;28;20031;-36
2021/05/05 02:00:32;;;;;;;4.57;1.30;;;7.10;72.60;;;;;;5096803;28;20028;-36
2021/05/05 02:02:58;;;;;;;1.77;1.35;;;7.00;72.30;;;;;;5096760;28;20028;-36
2021/05/05 02:05:23;;;;;;;2.22;1.70;;;7.00;72.80;;;;;;5096229;28;20084;-35
2021/05/05 02:07:49;;;;;;;2.80;1.60;;;7.00;73.10;;;;;;5096253;28;20035;-36
2021/05/05 02:10:18;;;;;;;3.05;1.70;;;7.00;73.40;;;;;;5096144;28;20066;-36
2021/05/05 02:12:43;;;;;;;5.68;2.38;;;7.00;73.10;;;;;;5096173;28;20023;-36
2021/05/05 02:15:11;;;;;;;2.42;1.92;;;7.00;73.30;;;;;;5095947;28;20028;-36
2021/05/05 02:17:37;;;;;;;4.38;1.88;;;7.10;73.40;;;;;;5096527;28;20079;-36
2021/05/05 02:20:05;;;;;;;5.15;2.38;;;7.10;73.80;;;;;;5096292;28;20040;-36
2021/05/05 02:22:30;;;;;;;4.30;2.83;;;7.00;74.20;;;;;;5095917;28;20468;-37
2021/05/05 02:24:56;;;;;;;2.72;2.38;;;7.00;74.50;;;;;;5095857;28;20104;-37
2021/05/05 02:27:22;;;;;;;7.10;4.00;;;6.90;75.10;;;;;;5095920;28;20078;-36
2021/05/05 02:29:47;;;;;;;5.97;2.72;;;7.00;75.40;;;;;;5096070;28;20016;-36
2021/05/05 02:32:16;;;;;;;5.63;3.00;;;6.90;75.70;;;;;;5095602;28;20024;-35
2021/05/05 02:34:42;;;;;;;9.30;4.13;;;7.00;75.90;;;;;;5095872;28;20024;-36
2021/05/05 02:37:09;;;;;;;8.68;4.85;;;6.90;76.40;;;;;;5095707;28;20112;-43
2021/05/05 02:39:41;;;;;;;7.50;4.18;;;6.80;76.40;;;;;;5095662;28;20025;-36
2021/05/05 02:42:09;;;;;;;4.60;3.80;;;6.80;76.40;;;;;;5095574;28;20368;-36
2021/05/05 02:44:35;;;;;;;5.97;3.80;;;6.80;76.80;;;;;;5095343;28;20023;-35
2021/05/05 02:47:02;;;;;;;7.55;4.15;;;6.90;76.50;;;;;;5095160;28;20089;-36
2021/05/05 02:49:29;;;;;;;6.13;3.80;;;6.80;76.70;;;;;;5095139;28;20063;-37
2021/05/05 02:51:55;;;;;;;6.18;3.30;;;6.90;76.90;;;;;;5094959;28;20059;-36
2021/05/05 02:54:20;;;;;;;5.30;4.05;;;6.80;76.70;;;;;;5095079;28;20380;-35
2021/05/05 02:56:46;;;;;;;5.80;3.60;;;6.80;76.90;;;;;;5095332;28;20373;-36
2021/05/05 02:59:12;;;;;;;9.57;4.72;;;6.90;76.70;;;;;;5095293;28;20020;-36
2021/05/05 03:01:37;;;;;;;6.28;3.92;;;6.80;76.80;;;;;;5095003;28;20103;-36
2021/05/05 03:04:03;;;;;;;8.02;4.07;;;6.80;77.10;;;;;;5095201;28;20126;-36
2021/05/05 03:06:30;;;;;;;7.28;4.55;;;6.80;77.20;;;;;;5095062;28;20042;-36
2021/05/05 03:08:57;;;;;;;6.80;4.47;;;6.80;77.40;;;;;;5094917;28;20036;-36
2021/05/05 03:11:22;;;;;;;6.00;4.13;;;6.70;77.40;;;;;;5094770;28;20494;-35
2021/05/05 03:13:48;;;;;;;8.90;4.25;;;6.70;77.50;;;;;;5095004;28;20099;-36
2021/05/05 03:16:14;;;;;;;6.03;4.25;;;6.70;77.40;;;;;;5095064;28;20023;-36
2021/05/05 03:18:40;;;;;;;7.95;4.57;;;6.60;77.60;;;;;;5094907;28;20024;-36
2021/05/05 03:21:06;;;;;;;5.53;4.25;;;6.60;77.30;;;;;;5094532;28;20081;-37
2021/05/05 03:23:32;;;;;;;6.93;4.30;;;6.60;77.30;;;;;;5094803;28;20384;-36
2021/05/05 03:25:57;;;;;;;14.82;4.38;;;6.60;77.00;;;;;;5094701;28;20035;-36
2021/05/05 03:28:23;;;;;;;7.70;2.85;;;6.50;77.30;;;;;;5094463;28;20024;-37
2021/05/05 03:30:49;;;;;;;9.35;3.92;;;6.40;77.80;;;;;;5094401;28;20403;-36
2021/05/05 03:33:15;;;;;;;11.38;4.28;;;6.30;78.00;;;;;;5094445;28;20369;-37
2021/05/05 03:35:41;;;;;;;5.43;3.80;;;6.30;78.20;;;;;;5094494;28;20024;-37
2021/05/05 03:38:07;;;;;;;7.30;3.83;;;6.30;78.50;;;;;;5093723;28;20423;-37
2021/05/05 03:40:33;;;;;;;5.95;3.53;;;6.30;78.40;;;;;;5094290;28;20024;-36
2021/05/05 03:42:58;;;;;;;6.75;3.65;;;6.30;78.30;;;;;;5094196;28;20034;-36
2021/05/05 03:45:24;;;;;;;5.30;3.40;;;6.30;78.60;;;;;;5094451;28;20114;-36
2021/05/05 03:47:50;;;;;;;5.20;3.47;;;6.20;78.80;;;;;;5094058;28;20464;-36
2021/05/05 03:50:17;;;;;;;6.22;3.40;;;6.20;78.80;;;;;;5093974;28;20437;-37
2021/05/05 03:52:43;;;;;;;7.78;3.25;;;6.20;78.90;;;;;;5094483;28;20012;-36
2021/05/05 03:55:09;;;;;;;5.47;3.40;;;6.20;79.10;;;;;;5093993;28;20020;-36
2021/05/05 03:57:35;;;;;;;5.72;3.40;;;6.10;78.80;;;;;;5092763;28;20060;-36
2021/05/05 04:00:01;;;;;;;8.85;4.15;;;6.20;78.70;;;;;;5093964;28;20545;-36
2021/05/05 04:02:27;;;;;;;6.28;3.78;;;6.20;78.70;;;;;;5094148;28;20020;-37
2021/05/05 04:04:53;;;;;;;12.10;4.35;;;6.20;78.70;;;;;;5092676;28;20114;-35
2021/05/05 04:07:18;;;;;;;9.80;4.18;;;6.30;78.40;;;;;;5093724;28;20381;-36
2021/05/05 04:09:44;;;;;;;9.82;4.28;;;6.20;78.80;;;;;;5093423;28;20024;-36
2021/05/05 04:12:11;;;;;;;5.28;4.43;;;6.30;78.60;;;;;;5093787;28;20020;-36
2021/05/05 04:14:37;;;;;;;9.77;5.18;;;6.30;78.60;;;;;;5093741;28;20061;-36
2021/05/05 04:17:03;;;;;;;8.77;4.75;;;6.30;78.70;;;;;;5093677;28;20095;-36
2021/05/05 04:19:28;;;;;;;11.68;4.68;;;6.20;78.90;;;;;;5093652;28;20024;-35
2021/05/05 04:21:54;;;;;;;5.70;4.45;;;6.30;78.80;;;;;;5093572;28;20020;-36
2021/05/05 04:24:20;;;;;;;12.77;5.95;;;6.30;78.10;;;;;;5092425;28;20031;-36
2021/05/05 04:26:48;;;;;;;10.38;6.20;;;6.30;78.50;;;;;;5093420;28;20028;-36
2021/05/05 04:29:13;;;;;;;7.95;5.50;;;6.30;78.80;;;;;;5093480;28;20027;-36
2021/05/05 04:31:39;;;;;;;9.55;6.22;;;6.30;79.10;;;;;;5092397;28;20024;-37
2021/05/05 04:34:05;;;;;;;8.15;6.03;;;6.30;79.00;;;;;;5093707;28;20466;-36
2021/05/05 04:36:31;;;;;;;7.28;6.45;;;6.30;79.00;;;;;;5093468;28;20028;-36
2021/05/05 04:38:57;;;;;;;8.60;6.60;;;6.40;79.00;;;;;;5093350;28;20110;-36
2021/05/05 04:41:22;;;;;;;9.15;6.10;;;6.30;79.40;;;;;;5093418;28;20099;-36
2021/05/05 04:43:48;;;;;;;8.30;7.00;;;6.30;79.30;;;;;;5093548;28;20024;-36
2021/05/05 04:46:13;;;;;;;8.40;6.53;;;6.40;79.50;;;;;;5093945;28;20364;-36
2021/05/05 04:48:39;;;;;;;8.68;6.85;;;6.40;79.30;;;;;;5092916;28;20024;-37
2021/05/05 04:51:05;;;;;;;11.02;5.72;;;6.40;79.70;;;;;;5093320;28;20036;-37
2021/05/05 04:53:30;;;;;;;14.48;7.47;;;6.30;81.20;;;;;;5093252;28;20024;-37
2021/05/05 04:55:56;;;;;;;13.50;7.10;;;6.10;81.90;;;;;;5093223;28;20016;-37
2021/05/05 04:58:22;;;;;;;15.52;7.40;;;6.10;82.10;;;;;;5093154;28;20081;-37
2021/05/05 05:00:47;;;;;;;9.15;6.75;;;6.10;81.60;;;;;;5093952;28;20039;-36
2021/05/05 05:03:13;;;;;;;9.40;6.68;;;6.20;82.20;;;;;;5093396;28;20052;-36
2021/05/05 05:05:39;;;;;;;11.95;7.70;;;6.20;82.50;;;;;;5093037;28;20028;-36
2021/05/05 05:08:05;;;;;;;15.75;8.00;;;6.20;81.80;;;;;;5092975;28;20443;-36
2021/05/05 05:10:30;;;;;;;8.73;7.43;;;6.30;82.00;;;;;;5093315;28;20022;-36
2021/05/05 05:12:56;;;;;;;8.32;7.03;;;6.30;81.30;;;;;;5093090;28;20020;-36
2021/05/05 05:15:22;;;;;;;14.70;7.72;;;6.30;80.50;;;;;;5092829;28;20360;-36
2021/05/05 05:17:48;;;;;;;15.05;7.78;;;6.40;80.40;;;;;;5092869;28;20471;-36
2021/05/05 05:20:14;;;;;;;12.45;7.32;;;6.60;79.80;;;;;;5093536;28;20039;-36
2021/05/05 05:22:40;;;;;;;14.13;7.43;;;6.50;80.20;;;;;;5091768;28;20024;-36
2021/05/05 05:25:09;;;;;;;14.18;8.52;;;6.60;80.20;;;;;;5093178;28;20490;-36
2021/05/05 05:27:35;;;;;;;12.10;7.60;;;6.60;80.00;;;;;;5092774;28;20414;-36
2021/05/05 05:30:01;;;;;;;10.80;7.20;;;6.60;80.00;;;;;;5092644;28;20024;-37
2021/05/05 05:32:26;;;;;;;13.73;8.38;;;6.60;80.10;;;;;;5093091;28;20093;-36
2021/05/05 05:34:52;;;;;;;14.27;8.35;;;6.60;79.50;;;;;;5093041;28;20021;-37
2021/05/05 05:37:18;;;;;;;14.05;8.55;;;6.60;79.80;;;;;;5092737;28;20396;-36
2021/05/05 05:39:45;;;;;;;12.57;8.25;;;6.60;80.10;;;;;;5093128;28;20039;-36
2021/05/05 05:42:10;;;;;;;23.08;9.00;;;6.50;80.10;;;;;;5093182;28;20383;-37
2021/05/05 05:44:36;;;;;;;13.32;8.38;;;6.60;80.30;;;;;;5092709;28;20020;-36
2021/05/05 05:47:02;;;;;;;16.90;8.00;;;6.60;80.30;;;;;;5092612;28;20020;-37
2021/05/05 05:49:27;;;;;;;13.25;7.95;;;6.60;80.20;;;;;;5093413;28;20107;-36
2021/05/05 05:51:53;;;;;;;18.05;9.98;;;6.60;80.50;;;;;;5092431;28;20074;-36
2021/05/05 05:54:20;;;;;;;10.43;6.75;;;6.40;81.70;;;;;;5092569;28;20024;-36
2021/05/05 05:56:46;;;;;;;8.18;5.50;;;6.20;82.00;;;;;;5092879;28;20482;-36
2021/05/05 05:59:11;;;;;;;18.33;6.22;;;5.90;82.40;;;;;;5092664;28;20028;-36
2021/05/05 06:01:37;;;;;;;15.85;7.13;;;6.00;83.40;;;;;;5095039;28;20487;-37
2021/05/05 06:04:03;;;;;;;8.07;5.88;;;6.00;83.70;;;;;;5096467;28;20090;-37
2021/05/05 06:06:29;;;;;;;8.40;5.80;;;5.90;83.50;;;;;;5095855;28;20027;-36
2021/05/05 06:08:54;;;;;;;7.10;4.63;;;5.80;84.00;;;;;;5095921;28;20024;-36
2021/05/05 06:11:20;;;;;;;7.07;4.28;;;5.70;83.90;;;;;;5096352;28;20020;-36
2021/05/05 06:13:46;;;;;;;7.10;4.97;;;5.60;83.40;;;;;;5096118;28;20028;-36
2021/05/05 06:16:11;;;;;;;6.13;4.05;;;5.60;84.80;;;;;;5096269;28;20040;-37
2021/05/05 06:18:37;;;;;;;7.30;3.90;;;5.50;84.80;;;;;;5094538;28;20024;-36
2021/05/05 06:21:03;;;;;;;7.20;4.22;;;5.50;85.10;;;;;;5096210;28;20024;-37
2021/05/05 06:23:29;;;;;;;8.50;3.95;;;5.50;85.80;;;;;;5097183;28;20059;-37
2021/05/05 06:25:56;;;;;;;5.35;4.15;;;5.50;85.70;;;;;;5095889;28;20063;-37
2021/05/05 06:28:22;;;;;;;6.40;4.03;;;5.50;85.60;;;;;;5095799;28;20459;-36
2021/05/05 06:30:48;;;;;;;9.13;4.28;;;5.60;85.80;;;;;;5094535;28;20114;-37
2021/05/05 06:33:14;;;;;;;7.40;4.32;;;5.60;85.50;;;;;;5095747;28;20103;-37
2021/05/05 06:35:39;;;;;;;9.90;4.78;;;5.60;85.50;;;;;;5095836;28;20016;-37
2021/05/05 06:38:05;;;;;;;6.00;4.93;;;5.60;85.40;;;;;;5095412;28;20483;-36
2021/05/05 06:40:31;;;;;;;4.80;4.32;;;5.80;85.50;;;;;;5077329;28;20427;-37
2021/05/05 06:42:57;;;;;;;7.32;5.00;;;5.80;86.00;;;;;;5094076;28;20089;-37
2021/05/05 06:45:23;;;;;;;6.22;4.68;;;5.70;86.00;;;;;;5093924;28;20024;-36
2021/05/05 06:47:48;;;;;;;6.22;4.90;;;5.70;86.20;;;;;;5093672;28;20024;-37
2021/05/05 06:50:14;;;;;;;3.95;3.60;;;5.90;85.90;;;;;;5094375;28;20099;-36
2021/05/05 06:52:40;;;;;;;6.38;3.83;;;6.00;84.80;;;;;;5095192;28;20056;-36
2021/05/05 06:55:07;;;;;;;7.78;3.28;;;6.10;85.00;;;;;;5095309;28;20065;-35
2021/05/05 06:57:33;;;;;;;10.32;3.85;;;6.10;84.80;;;;;;5094803;28;20024;-37
2021/05/05 06:59:59;;;;;;;7.60;3.47;;;6.20;85.30;;;;;;5095379;28;20035;-37
2021/05/05 07:02:24;;;;;;;6.82;3.83;;;6.10;84.60;;;;;;5095511;28;20063;-37
2021/05/05 07:04:50;;;;;;;8.07;4.03;;;6.20;84.50;;;;;;5093985;28;20055;-36
2021/05/05 07:07:16;;;;;;;4.50;3.38;;;6.20;84.40;;;;;;5095312;28;20028;-36
2021/05/05 07:09:41;;;;;;;6.45;3.75;;;6.30;84.00;;;;;;5094702;28;20090;-37
2021/05/05 07:12:07;;;;;;;7.30;3.63;;;6.30;84.50;;;;;;5094629;28;20020;-36
2021/05/05 07:14:33;;;;;;;11.85;5.18;;;6.40;83.90;;;;;;5094625;28;20043;-37
2021/05/05 07:16:59;;;;;;;8.48;4.30;;;6.30;83.90;;;;;;5095095;28;20027;-37
2021/05/05 07:19:24;;;;;;;7.40;4.43;;;6.20;83.90;;;;;;5094675;28;20392;-37
2021/05/05 07:21:50;;;;;;;7.05;5.15;;;6.20;84.00;;;;;;5093368;28;20537;-37
2021/05/05 07:24:16;;;;;;;9.02;5.82;;;6.20;84.90;;;;;;5094680;28;20039;-37
2021/05/05 07:26:42;;;;;;;8.75;5.82;;;6.10;84.50;;;;;;5094832;28;20487;-37
2021/05/05 07:29:08;;;;;;;8.45;5.22;;;5.90;84.90;;;;;;5096120;28;20465;-37
2021/05/05 07:31:33;;;;;;;7.50;5.00;;;6.00;84.70;;;;;;5093090;28;20016;-36
2021/05/05 07:34:00;;;;;;;12.68;5.53;;;6.00;84.30;;;;;;5094643;28;20028;-36
2021/05/05 07:36:27;;;;;;;9.32;4.40;;;5.90;83.90;;;;;;5094206;28;20090;-36
2021/05/05 07:45:16;;;;;;;7.32;4.53;;;6.20;82.90;;;;;;5094470;28;20039;-37
2021/05/05 07:47:19;;;;;;;4.05;3.60;;;6.30;81.60;;;;;;5096050;28;20388;-37
2021/05/05 07:49:52;;;;;;;5.85;3.42;;;6.20;82.80;;;;;;5092855;28;20016;-37
2021/05/05 07:52:19;;;;;;;4.68;4.28;;;6.30;83.00;;;;;;5093507;28;20052;-37
2021/05/05 07:54:45;;;;;;;7.18;4.00;;;6.40;82.80;;;;;;5094146;28;20044;-37
2021/05/05 07:57:11;;;;;;;9.77;3.92;;;6.60;82.40;;;;;;5093817;28;20028;-36
2021/05/05 07:59:38;;;;;;;6.40;3.35;;;6.80;80.80;;;;;;5092319;28;20024;-36
2021/05/05 08:02:05;;;;;;;10.98;4.50;;;6.60;81.50;;;;;;5093663;28;20042;-38
2021/05/05 08:04:32;;;;;;;3.88;2.80;;;7.20;80.60;;;;;;5093745;28;20024;-37
2021/05/05 08:06:58;;;;;;;3.13;2.20;;;7.30;79.20;;;;;;5092423;28;20087;-37
2021/05/05 08:09:25;;;;;;;3.90;2.67;;;7.10;79.50;;;;;;5093382;28;20032;-37
2021/05/05 08:11:50;;;;;;;5.82;3.35;;;7.00;79.60;;;;;;5093590;28;20016;-36
2021/05/05 08:14:17;;;;;;;3.38;2.60;;;6.80;78.70;;;;;;5093428;28;20018;-37
2021/05/05 08:16:43;;;;;;;6.60;2.83;;;7.20;78.30;;;;;;5093638;28;20016;-37
2021/05/05 08:19:09;;;;;;;5.20;2.88;;;7.30;78.40;;;;;;5093426;28;20028;-37
2021/05/05 08:21:34;;;;;;;5.68;3.10;;;7.50;75.00;;;;;;5093827;28;20055;-37
2021/05/05 08:24:00;;;;;;;9.75;3.92;;;7.90;74.60;;;;;;5092711;28;20024;-37
2021/05/05 08:26:27;;;;;;;4.47;3.20;;;7.70;75.10;;;;;;5093404;28;20024;-36
2021/05/05 08:28:53;;;;;;;7.18;2.60;;;7.80;74.50;;;;;;5093182;28;20050;-35
2021/05/05 08:31:18;;;;;;;6.63;3.55;;;7.70;73.60;;;;;;5093386;28;20020;-36
2021/05/05 08:33:44;;;;;;;8.18;3.25;;;7.70;74.60;;;;;;5093618;28;20024;-37
2021/05/05 08:36:10;;;;;;;6.10;3.42;;;8.00;74.00;;;;;;5093817;28;20410;-37
2021/05/05 08:38:36;;;;;;;5.13;3.03;;;8.60;72.90;;;;;;5093471;28;20039;-37
2021/05/05 08:41:04;;;;;;;11.88;3.47;;;8.40;71.70;;;;;;5093460;28;20478;-36
2021/05/05 08:43:32;;;;;;;9.55;3.03;;;8.50;71.10;;;;;;5093478;28;20384;-36
2021/05/05 08:45:59;;;;;;;15.32;3.10;;;8.60;71.70;;;;;;5093386;28;20035;-36
2021/05/05 08:48:25;;;;;;;8.25;3.13;;;9.10;68.60;;;;;;5092955;28;20024;-37
2021/05/05 08:50:51;;;;;;;7.13;3.35;;;8.90;69.10;;;;;;5092729;28;20048;-36
2021/05/05 08:53:17;;;;;;;8.05;3.47;;;8.70;70.00;;;;;;5091793;28;20523;-36
2021/05/05 08:55:43;;;;;;;8.10;2.80;;;8.70;70.70;;;;;;5093529;28;20100;-37
2021/05/05 08:58:09;;;;;;;7.30;2.83;;;8.40;70.80;;;;;;5093246;28;20035;-38
2021/05/05 09:00:36;;;;;;;7.70;2.90;;;8.40;69.10;;;;;;5093102;28;20074;-38
2021/05/05 09:03:05;;;;;;;6.97;3.50;;;8.20;69.70;;;;;;5093286;28;20032;-36
2021/05/05 09:05:51;;;;;;;8.93;2.72;;;8.30;69.90;;;;;;5091594;28;20153;-36
2021/05/05 09:08:18;;;;;;;7.55;3.25;;;8.30;69.90;;;;;;5093060;28;20024;-36
2021/05/05 09:11:01;;;;;;;9.20;3.67;;;8.30;69.40;;;;;;5093193;28;20367;-36
2021/05/05 09:13:43;;;;;;;5.68;3.10;;;8.30;70.10;;;;;;5092886;28;20044;-41
2021/05/05 09:16:10;;;;;;;8.10;4.05;;;7.80;70.50;;;;;;5091632;28;20127;-35
2021/05/05 09:19:02;;;;;;;5.97;2.65;;;7.90;72.00;;;;;;5091348;28;20077;-38
2021/05/05 09:21:42;;;;;;;5.10;3.17;;;7.70;72.50;;;;;;5091119;28;20430;-36
2021/05/05 09:24:23;;;;;;;8.97;3.97;;;7.90;72.30;;;;;;5092355;28;20071;-35
2021/05/05 09:27:13;;;;;;;6.50;3.08;;;7.80;74.20;;;;;;5092409;28;20254;-36
2021/05/05 09:29:47;;;;;;;8.35;2.95;;;8.00;74.00;;;;;;5092659;28;20084;-36
2021/05/05 09:32:15;;;;;;;7.00;2.72;;;8.10;72.30;;;;;;5092394;28;20031;-35
2021/05/05 09:34:41;;;;;;;2.92;2.28;;;8.70;70.40;;;;;;5093304;28;20040;-36
2021/05/05 09:37:09;;;;;;;6.40;3.15;;;8.80;69.70;;;;;;5096207;28;20027;-36
2021/05/05 09:39:40;;;;;;;6.65;2.30;;;8.30;69.90;;;;;;5096693;28;20052;-36
2021/05/05 09:42:18;;;;;;;14.68;2.63;;;8.70;68.20;;;;;;5096707;28;20085;-37
2021/05/05 09:44:55;;;;;;;4.50;1.90;;;8.80;67.70;;;;;;5096571;28;20472;-36
2021/05/05 09:47:21;;;;;;;4.60;2.03;;;8.80;68.50;;;;;;5096371;28;20095;-36
2021/05/05 09:49:47;;;;;;;4.82;2.30;;;8.80;67.30;;;;;;5095012;28;20486;-36
2021/05/05 09:52:19;;;;;;;6.38;2.08;;;8.80;67.80;;;;;;5094851;28;20507;-37
2021/05/05 09:55:02;;;;;;;4.18;2.20;;;9.10;66.30;;;;;;5096381;28;20020;-37
2021/05/05 09:57:32;;;;;;;11.02;1.92;;;9.30;64.70;;;;;;5095667;28;20112;-37
2021/05/05 10:00:15;;;;;;;4.05;1.80;;;9.80;64.80;;;;;;5094348;28;20388;-37
2021/05/05 10:02:49;;;;;;;4.40;1.75;;;10.20;64.70;;;;;;5095631;28;20054;-37
2021/05/05 10:05:24;;;;;;;5.82;1.95;;;10.20;64.30;;;;;;5095669;28;20056;-41
2021/05/05 10:08:00;;;;;;;7.55;2.60;;;9.30;66.10;;;;;;5096082;28;20020;-37
2021/05/05 10:10:31;;;;;;;4.95;2.60;;;9.60;64.80;;;;;;5096331;28;20050;-37
2021/05/05 10:12:59;;;;;;;3.97;2.17;;;9.30;65.60;;;;;;5095925;28;20091;-37
2021/05/05 10:15:27;;;;;;;7.20;2.03;;;8.70;66.40;;;;;;5095866;28;20031;-37
2021/05/05 10:17:53;;;;;;;3.33;2.03;;;9.60;63.30;;;;;;5096083;28;20028;-36
2021/05/05 10:20:24;;;;;;;5.95;2.40;;;10.10;60.80;;;;;;5094567;28;20080;-37
2021/05/05 10:22:55;;;;;;;12.02;2.17;;;10.00;60.60;;;;;;5096203;28;20472;-36
2021/05/05 10:25:22;;;;;;;3.17;1.83;;;9.40;62.90;;;;;;5096156;28;20031;-36
2021/05/05 10:27:48;;;;;;;7.93;2.38;;;9.50;62.80;;;;;;5095296;28;20024;-37
2021/05/05 10:30:18;;;;;;;7.28;1.92;;;9.30;64.50;;;;;;5095744;28;20476;-37
2021/05/05 10:32:46;;;;;;;4.10;2.58;;;8.90;66.00;;;;;;5095577;28;20533;-35
2021/05/05 10:35:16;;;;;;;8.18;2.10;;;8.40;70.50;;;;;;5095780;28;20020;-36
2021/05/05 10:37:55;;;;;;;5.13;2.38;;;8.20;70.80;;;;;;5095458;28;20103;-37
2021/05/05 10:40:24;;;;;;;5.00;2.42;;;9.10;69.60;;;;;;5095275;28;20432;-37
2021/05/05 10:43:03;;;;;;;4.80;2.25;;;9.80;67.50;;;;;;5095259;28;20066;-37
2021/05/05 10:45:45;;;;;;;5.95;2.15;;;10.30;63.70;;;;;;5095515;28;20024;-36
2021/05/05 10:48:18;;;;;;;4.55;2.17;;;9.40;65.30;;;;;;5095104;28;20027;-37
2021/05/05 10:50:52;;;;;;;2.63;1.60;;;9.30;65.50;;;;;;5093732;28;20048;-37
2021/05/05 10:53:18;;;;;;;3.17;1.83;;;9.30;65.50;;;;;;5095640;28;20031;-37
2021/05/05 10:55:59;;;;;;;6.63;1.95;;;10.30;61.80;;;;;;5095416;28;20024;-36
2021/05/05 10:58:32;;;;;;;3.72;1.77;;;10.30;59.40;;;;;;5095128;28;20020;-37
2021/05/05 11:01:05;;;;;;;5.90;2.38;;;10.50;58.70;;;;;;5095362;28;20036;-38
2021/05/05 11:03:44;;;;;;;3.63;1.63;;;11.00;58.60;;;;;;5095006;28;20024;-37
2021/05/05 11:06:53;;;;;;;6.72;3.28;;;10.70;59.70;;;;;;5094790;28;20032;-37
2021/05/05 11:09:19;;;;;;;4.47;2.08;;;10.80;59.20;;;;;;5092787;28;20472;-37
2021/05/05 11:11:48;;;;;;;9.85;2.58;;;10.10;63.20;;;;;;5094389;28;20120;-37
2021/05/05 11:14:23;;;;;;;5.80;1.83;;;9.20;65.50;;;;;;5094700;28;20020;-36
2021/05/05 11:16:55;;;;;;;3.38;1.95;;;8.00;74.30;;;;;;5094946;28;20499;-36
2021/05/05 11:19:36;;;;;;;1.20;0.90;;;8.10;73.00;;;;;;5093277;28;20553;-36
2021/05/05 11:22:23;;;;;;;1.58;1.30;;;8.00;71.60;;;;;;5094937;28;20036;-36
2021/05/05 11:24:50;;;;;;;1.63;1.30;;;7.80;73.60;;;;;;5094487;28;20032;-36
2021/05/05 11:27:17;;;;;;;3.95;1.83;;;7.80;75.80;;;;;;5094182;28;20032;-36
2021/05/05 11:29:51;;;;;;;4.38;2.10;;;7.90;76.60;;;;;;5094075;28;20020;-38
2021/05/05 11:32:23;;;;;;;4.40;1.70;;;8.00;75.00;;;;;;5094926;28;20056;-37
2021/05/05 11:34:50;;;;;;;1.83;1.48;;;8.00;72.70;;;;;;5094966;28;20341;-35
2021/05/05 11:37:24;;;;;;;3.90;1.23;;;8.20;73.20;;;;;;5092400;28;20555;-38
2021/05/05 11:39:57;;;;;;;2.20;1.30;;;8.20;72.40;;;;;;5093963;28;20051;-36
2021/05/05 11:42:29;;;;;;;5.15;1.42;;;7.90;71.90;;;;;;5094337;28;20020;-36
2021/05/05 11:44:56;;;;;;;3.00;1.05;;;7.70;71.50;;;;;;5094294;28;20417;-39
2021/05/05 11:47:28;;;;;;;3.47;0.90;;;7.80;69.90;;;;;;5094099;28;20491;-36
2021/05/05 11:49:55;;;;;;;3.28;1.40;;;8.10;69.70;;;;;;5094161;28;20016;-37
2021/05/05 11:52:29;;;;;;;2.83;1.15;;;9.10;66.70;;;;;;5093930;28;20044;-37
2021/05/05 11:55:13;;;;;;;5.13;1.38;;;9.20;66.30;;;;;;5094004;28;20073;-38
2021/05/05 11:57:48;;;;;;;1.40;0.77;;;8.40;68.50;;;;;;5093558;28;20345;-36
2021/05/05 12:00:25;;;;;;;4.30;1.52;;;8.60;69.40;;;;;;5093967;28;20028;-37
2021/05/05 12:02:54;;;;;;;3.72;1.10;;;8.50;69.80;;;;;;5094548;28;20028;-37
2021/05/05 12:05:40;;;;;;;3.88;1.70;;;8.80;67.80;;;;;;5094434;28;20020;-38
2021/05/05 12:08:16;;;;;;;5.00;1.45;;;8.30;68.50;;;;;;5094242;28;20620;-38
2021/05/05 12:10:44;;;;;;;4.18;1.60;;;8.30;68.50;;;;;;5092971;28;20039;-36
2021/05/05 12:13:11;;;;;;;6.72;1.20;;;8.80;67.60;;;;;;5094032;28;20468;-37
2021/05/05 12:15:40;;;;;;;4.47;1.73;;;8.90;67.60;;;;;;5092426;28;20020;-36
2021/05/05 12:18:18;;;;;;;2.47;1.13;;;9.00;67.20;;;;;;5093877;28;20063;-36
2021/05/05 12:20:46;;;;;;;3.20;1.65;;;8.80;67.40;;;;;;5093605;28;20434;-38
2021/05/05 12:23:12;;;;;;;5.53;1.42;;;8.90;66.80;;;;;;5092405;28;20020;-37
2021/05/05 12:25:37;;;;;;;4.20;2.35;;;9.30;65.70;;;;;;5093932;28;20027;-37
2021/05/05 12:28:04;;;;;;;2.97;1.65;;;9.50;64.90;;;;;;5094223;28;20081;-37
2021/05/05 12:30:45;;;;;;;3.25;1.70;;;9.90;64.60;;;;;;5093809;28;20021;-36
2021/05/05 12:33:13;;;;;;;5.03;1.52;;;10.50;62.90;;;;;;5093501;28;20090;-37
2021/05/05 12:35:39;;;;;;;11.18;2.30;;;11.10;60.50;;;;;;5091919;28;20047;-36
2021/05/05 12:38:07;;;;;;;6.68;1.98;;;11.00;61.10;;;;;;5091960;28;20039;-36
2021/05/05 12:40:33;;;;;;;8.57;1.60;;;10.40;62.70;;;;;;5092195;28;20119;-37
2021/05/05 12:43:17;;;;;;;3.65;1.58;;;10.40;63.20;;;;;;5093487;28;20514;-37
2021/05/05 12:45:45;;;;;;;7.30;1.98;;;10.20;63.90;;;;;;5091741;28;20114;-36
2021/05/05 12:48:10;;;;;;;6.50;1.42;;;9.90;63.10;;;;;;5093020;28;20065;-37
2021/05/05 12:50:42;;;;;;;6.97;1.52;;;9.70;63.30;;;;;;5091404;28;20484;-37
2021/05/05 12:53:09;;;;;;;2.55;1.10;;;9.60;64.20;;;;;;5092934;28;20021;-36
2021/05/05 12:55:38;;;;;;;4.25;1.42;;;9.10;64.30;;;;;;5091565;28;20024;-36
2021/05/05 12:58:15;;;;;;;2.97;1.38;;;9.10;65.50;;;;;;5093348;28;20468;-37
2021/05/05 13:00:47;;;;;;;3.20;1.30;;;8.80;65.10;;;;;;5093143;28;20051;-37
2021/05/05 13:03:14;;;;;;;7.90;2.33;;;8.90;64.70;;;;;;5091720;28;20067;-37
2021/05/05 13:06:03;;;;;;;11.00;1.83;;;8.90;64.20;;;;;;5091728;28;20545;-37